createdAt,value
2023-03-05T00:02:44.984Z,1.74
2023-03-05T00:05:46.382Z,1.70
2023-03-05T00:08:49.104Z,1.75
2023-03-05T00:11:50.527Z,1.77
2023-03-05T00:14:51.903Z,1.76
2023-03-05T00:17:53.286Z,1.66
2023-03-05T00:20:54.653Z,1.48
2023-03-05T00:23:57.607Z,1.34
2023-03-05T00:26:59.071Z,1.26
2023-03-05T00:30:00.603Z,1.23
2023-03-05T00:33:02.158Z,1.12
2023-03-05T00:36:06.237Z,0.94
2023-03-05T00:42:26.666Z,0.73
2023-03-05T00:45:28.059Z,0.70
2023-03-05T00:48:29.458Z,0.60
2023-03-05T00:51:30.928Z,0.50
2023-03-05T00:54:32.363Z,0.41
2023-03-05T00:57:33.808Z,0.33
2023-03-05T01:00:35.886Z,0.25
2023-03-05T01:03:37.469Z,0.19
2023-03-05T01:06:38.963Z,0.20
2023-03-05T01:09:40.605Z,0.20
2023-03-05T01:12:42.090Z,0.21
2023-03-05T01:15:43.555Z,0.27
2023-03-05T01:18:45.056Z,0.26
2023-03-05T01:21:46.584Z,0.26
2023-03-05T01:24:48.069Z,0.33
2023-03-05T01:27:49.637Z,0.33
2023-03-05T01:30:51.319Z,0.36
2023-03-05T01:33:54.038Z,0.39
2023-03-05T01:36:55.481Z,0.37
2023-03-05T01:39:57.024Z,0.39
2023-03-05T01:43:21.164Z,0.44
2023-03-05T01:46:26.614Z,0.47
2023-03-05T01:49:35.730Z,0.52
2023-03-05T01:52:39.747Z,0.58
2023-03-05T01:55:41.394Z,0.66
2023-03-05T01:58:44.025Z,0.64
2023-03-05T02:01:49.988Z,0.55
2023-03-05T02:04:57.509Z,0.47
2023-03-05T02:08:01.683Z,0.30
2023-03-05T02:11:03.480Z,0.15
2023-03-05T02:14:09.038Z,0.05
2023-03-05T02:17:11.890Z,-0.05
2023-03-05T02:20:20.878Z,-0.08
2023-03-05T02:23:25.712Z,-0.10
2023-03-05T02:26:27.225Z,-0.04
2023-03-05T02:29:30.085Z,0.08
2023-03-05T02:32:31.532Z,0.11
2023-03-05T02:35:33.341Z,0.16
2023-03-05T02:38:34.865Z,0.23
2023-03-05T02:41:36.279Z,0.24
2023-03-05T02:44:39.140Z,0.20
2023-03-05T02:47:40.801Z,0.20
2023-03-05T02:50:44.818Z,0.15
2023-03-05T02:53:46.401Z,0.08
2023-03-05T02:56:48.955Z,0.01
2023-03-05T02:59:50.467Z,-0.04
2023-03-05T03:02:52.166Z,-0.04
2023-03-05T03:05:53.564Z,-0.03
2023-03-05T03:08:54.941Z,-0.08
2023-03-05T03:11:56.379Z,-0.11
2023-03-05T03:14:57.823Z,-0.11
2023-03-05T03:17:59.355Z,-0.14
2023-03-05T03:21:01.621Z,-0.16
2023-03-05T03:24:03.122Z,-0.27
2023-03-05T03:27:04.736Z,-0.34
2023-03-05T03:30:06.828Z,-0.38
2023-03-05T03:33:08.192Z,-0.40
2023-03-05T03:36:10.039Z,-0.42
2023-03-05T03:39:11.681Z,-0.37
2023-03-05T03:42:13.100Z,-0.32
2023-03-05T03:45:14.501Z,-0.29
2023-03-05T03:48:15.886Z,-0.28
2023-03-05T03:51:17.558Z,-0.22
2023-03-05T03:54:19.529Z,-0.16
2023-03-05T03:57:21.011Z,-0.14
2023-03-05T04:00:22.531Z,-0.15
2023-03-05T04:03:23.903Z,-0.09
2023-03-05T04:06:25.525Z,-0.05
2023-03-05T04:09:26.993Z,-0.04
2023-03-05T04:12:28.420Z,-0.03
2023-03-05T04:15:29.820Z,0.00
2023-03-05T04:18:32.529Z,0.03
2023-03-05T04:21:34.017Z,0.01
2023-03-05T04:24:35.411Z,0.01
2023-03-05T04:27:36.895Z,0.03
2023-03-05T04:30:38.337Z,0.06
2023-03-05T04:33:39.818Z,0.06
2023-03-05T04:36:41.196Z,0.08
2023-03-05T04:39:42.592Z,0.08
2023-03-05T04:42:44.426Z,0.08
2023-03-05T04:45:45.838Z,0.10
2023-03-05T04:48:47.351Z,0.12
2023-03-05T04:51:48.845Z,0.17
2023-03-05T04:54:50.869Z,0.24
2023-03-05T04:57:52.270Z,0.21
2023-03-05T05:00:53.672Z,0.16
2023-03-05T05:03:55.076Z,0.11
2023-03-05T05:06:57.399Z,0.04
2023-03-05T05:09:58.794Z,0.00
2023-03-05T05:13:00.243Z,-0.09
2023-03-05T05:16:01.886Z,-0.13
2023-03-05T05:19:03.480Z,-0.15
2023-03-05T05:22:04.928Z,-0.21
2023-03-05T05:25:06.611Z,-0.20
2023-03-05T05:28:07.987Z,-0.18
2023-03-05T05:31:11.976Z,-0.15
2023-03-05T05:34:13.439Z,-0.16
2023-03-05T05:37:15.074Z,-0.13
2023-03-05T05:40:16.664Z,-0.09
2023-03-05T05:43:18.089Z,-0.08
2023-03-05T05:46:20.298Z,-0.07
2023-03-05T05:49:21.883Z,-0.04
2023-03-05T05:52:23.299Z,-0.03
2023-03-05T05:55:24.776Z,-0.04
2023-03-05T05:58:26.269Z,-0.06
2023-03-05T06:01:30.427Z,-0.07
2023-03-05T06:04:31.827Z,-0.04
2023-03-05T06:07:35.084Z,-0.01
2023-03-05T06:10:36.458Z,-0.03
2023-03-05T06:13:38.308Z,0.04
2023-03-05T06:16:40.096Z,0.03
2023-03-05T06:19:41.541Z,0.00
2023-03-05T06:22:42.916Z,-0.03
2023-03-05T06:25:44.315Z,0.04
2023-03-05T06:28:45.967Z,0.10
2023-03-05T06:31:47.388Z,0.11
2023-03-05T06:34:49.522Z,0.17
2023-03-05T06:37:50.954Z,0.16
2023-03-05T06:40:52.452Z,0.25
2023-03-05T06:43:54.706Z,0.26
2023-03-05T06:46:56.289Z,0.26
2023-03-05T06:49:57.761Z,0.25
2023-03-05T06:52:59.221Z,0.32
2023-03-05T06:56:01.393Z,0.37
2023-03-05T06:59:03.243Z,0.46
2023-03-05T07:02:04.720Z,0.50
2023-03-05T07:05:07.321Z,0.50
2023-03-05T07:08:09.674Z,0.54
2023-03-05T07:11:21.200Z,0.67
2023-03-05T07:14:22.860Z,0.91
2023-03-05T07:17:24.263Z,1.29
2023-03-05T07:20:26.037Z,1.75
2023-03-05T07:23:27.415Z,2.93
2023-03-05T07:26:28.910Z,1.94
2023-03-05T07:29:30.318Z,1.61
2023-03-05T07:32:34.515Z,1.50
2023-03-05T07:35:40.127Z,1.43
2023-03-05T07:38:41.636Z,1.46
2023-03-05T07:41:43.049Z,1.56
2023-03-05T07:44:44.503Z,1.66
2023-03-05T07:47:45.882Z,1.85
2023-03-05T07:50:48.037Z,1.98
2023-03-05T07:53:51.201Z,1.96
2023-03-05T07:56:55.332Z,1.94
2023-03-05T07:59:56.738Z,2.07
2023-03-05T08:02:58.134Z,2.02
2023-03-05T08:05:59.521Z,2.02
2023-03-05T08:09:00.960Z,2.06
2023-03-05T08:12:02.377Z,2.37
2023-03-05T08:15:03.945Z,2.52
2023-03-05T08:18:05.489Z,2.38
2023-03-05T08:21:07.234Z,2.48
2023-03-05T08:24:09.283Z,2.54
2023-03-05T08:27:10.676Z,2.47
2023-03-05T08:30:16.236Z,2.61
2023-03-05T08:33:18.387Z,2.66
2023-03-05T08:36:20.065Z,2.69
2023-03-05T08:39:21.442Z,2.73
2023-03-05T08:42:23.494Z,3.04
2023-03-05T08:45:24.920Z,3.23
2023-03-05T08:48:26.556Z,3.29
2023-03-05T08:51:28.110Z,3.36
2023-03-05T08:54:29.594Z,3.51
2023-03-05T08:57:31.098Z,3.54
2023-03-05T09:00:32.572Z,3.46
2023-03-05T09:03:34.028Z,3.69
2023-03-05T09:06:35.405Z,3.83
2023-03-05T09:09:37.310Z,3.77
2023-03-05T09:12:38.959Z,3.58
2023-03-05T09:15:40.419Z,3.80
2023-03-05T09:18:42.859Z,3.75
2023-03-05T09:21:44.234Z,3.78
2023-03-05T09:24:45.638Z,3.79
2023-03-05T09:27:47.074Z,4.28
2023-03-05T09:30:48.627Z,4.47
2023-03-05T09:33:50.110Z,4.38
2023-03-05T09:36:51.542Z,4.04
2023-03-05T09:39:52.929Z,3.83
2023-03-05T09:43:30.373Z,3.34
2023-03-05T09:47:14.928Z,2.90
2023-03-05T09:50:22.291Z,2.28
2023-03-05T09:53:35.614Z,2.10
2023-03-05T09:56:41.645Z,2.11
2023-03-05T09:59:53.905Z,2.04
2023-03-05T10:02:59.297Z,1.97
2023-03-05T10:06:44.988Z,1.95
2023-03-05T10:10:11.990Z,1.87
2023-03-05T10:13:26.718Z,1.66
2023-03-05T10:16:49.144Z,1.89
2023-03-05T10:20:19.701Z,2.49
2023-03-05T10:23:43.838Z,3.09
2023-03-05T10:26:45.198Z,3.54
2023-03-05T10:29:58.674Z,3.37
2023-03-05T10:33:25.861Z,3.43
2023-03-05T10:36:42.202Z,3.40
2023-03-05T10:39:49.409Z,3.26
2023-03-05T10:43:11.993Z,3.49
2023-03-05T10:46:18.519Z,4.09
2023-03-05T10:49:25.049Z,4.56
2023-03-05T10:52:39.644Z,4.20
2023-03-05T10:55:41.425Z,4.09
2023-03-05T10:58:42.796Z,4.23
2023-03-05T11:02:02.485Z,4.17
2023-03-05T11:05:05.242Z,4.39
2023-03-05T11:08:24.887Z,4.57
2023-03-05T11:11:26.335Z,4.69
2023-03-05T11:14:29.967Z,4.77
2023-03-05T11:17:47.987Z,4.78
2023-03-05T11:20:50.042Z,4.83
2023-03-05T11:24:05.825Z,4.76
2023-03-05T11:27:31.361Z,4.74
2023-03-05T11:30:36.588Z,4.69
2023-03-05T11:33:38.233Z,4.87
2023-03-05T11:36:44.349Z,5.18
2023-03-05T11:39:45.807Z,5.37
2023-03-05T11:42:55.299Z,5.63
2023-03-05T11:46:03.063Z,5.69
2023-03-05T11:49:06.959Z,6.04
2023-03-05T11:52:15.534Z,6.47
2023-03-05T11:56:02.313Z,6.10
2023-03-05T11:59:20.359Z,5.85
2023-03-05T12:02:25.536Z,6.07
2023-03-05T12:05:28.802Z,5.76
2023-03-05T12:08:34.970Z,5.54
2023-03-05T12:11:37.039Z,5.33
2023-03-05T12:14:51.395Z,4.98
2023-03-05T12:18:10.360Z,4.77
2023-03-05T12:21:17.553Z,4.59
2023-03-05T12:24:27.929Z,4.58
2023-03-05T12:27:35.271Z,4.57
2023-03-05T12:30:36.621Z,4.56
2023-03-05T12:33:39.205Z,4.32
2023-03-05T12:36:40.880Z,4.25
2023-03-05T12:39:48.646Z,3.83
2023-03-05T12:43:05.699Z,3.84
2023-03-05T12:46:34.561Z,3.65
2023-03-05T12:49:39.517Z,3.62
2023-03-05T12:52:45.103Z,3.72
2023-03-05T12:56:16.115Z,3.67
2023-03-05T12:59:21.718Z,3.68
2023-03-05T13:02:25.830Z,3.81
2023-03-05T13:05:32.061Z,4.07
2023-03-05T13:08:37.062Z,4.20
2023-03-05T13:11:39.109Z,4.57
2023-03-05T13:14:44.906Z,4.64
2023-03-05T13:17:49.108Z,4.74
2023-03-05T13:21:30.190Z,4.69
2023-03-05T13:24:31.673Z,4.63
2023-03-05T13:27:33.378Z,4.60
2023-03-05T13:30:34.934Z,4.52
2023-03-05T13:33:36.625Z,4.46
2023-03-05T13:36:39.697Z,4.36
2023-03-05T13:39:47.845Z,4.43
2023-03-05T13:42:49.897Z,4.29
2023-03-05T13:45:55.292Z,4.23
2023-03-05T13:48:58.236Z,4.13
2023-03-05T13:51:59.675Z,3.92
2023-03-05T13:55:02.753Z,3.80
2023-03-05T13:58:04.159Z,3.86
2023-03-05T14:01:12.622Z,3.84
2023-03-05T14:04:14.050Z,3.90
2023-03-05T14:07:39.256Z,4.11
2023-03-05T14:10:41.241Z,4.20
2023-03-05T14:13:43.766Z,4.27
2023-03-05T14:16:45.293Z,4.25
2023-03-05T14:19:46.771Z,4.39
2023-03-05T14:22:49.702Z,4.55
2023-03-05T14:25:51.232Z,4.39
2023-03-05T14:29:15.675Z,4.37
2023-03-05T14:32:29.995Z,4.42
2023-03-05T14:35:31.507Z,4.45
2023-03-05T14:38:34.137Z,4.52
2023-03-05T14:41:41.409Z,4.38
2023-03-05T14:44:42.797Z,4.37
2023-03-05T14:47:44.536Z,4.29
2023-03-05T14:50:48.416Z,4.32
2023-03-05T14:53:49.952Z,4.32
2023-03-05T14:56:52.287Z,4.28
2023-03-05T14:59:54.126Z,4.25
2023-03-05T15:02:55.604Z,4.34
2023-03-05T15:05:58.886Z,4.31
2023-03-05T15:09:01.067Z,4.26
2023-03-05T15:12:02.497Z,4.32
2023-03-05T15:15:04.312Z,4.38
2023-03-05T15:18:05.692Z,4.36
2023-03-05T15:21:07.424Z,4.34
2023-03-05T15:24:11.179Z,4.13
2023-03-05T15:27:13.157Z,4.06
2023-03-05T15:30:20.424Z,3.99
2023-03-05T15:33:21.778Z,3.94
2023-03-05T15:36:23.151Z,3.90
2023-03-05T15:39:24.570Z,3.83
2023-03-05T15:42:26.003Z,3.72
2023-03-05T15:45:28.019Z,3.70
2023-03-05T15:48:29.392Z,3.73
2023-03-05T15:51:30.805Z,3.64
2023-03-05T15:54:32.172Z,3.59
2023-03-05T15:57:36.564Z,3.50
2023-03-05T16:00:38.044Z,3.27
2023-03-05T16:03:39.623Z,3.19
2023-03-05T16:06:42.008Z,3.20
2023-03-05T16:09:47.226Z,3.30
2023-03-05T16:12:52.921Z,3.19
2023-03-05T16:15:54.662Z,3.03
2023-03-05T16:18:56.130Z,3.15
2023-03-05T16:21:57.490Z,3.11
2023-03-05T16:24:58.944Z,3.05
2023-03-05T16:28:00.402Z,3.05
2023-03-05T16:31:02.017Z,2.96
2023-03-05T16:34:04.436Z,2.96
2023-03-05T16:37:05.857Z,2.97
2023-03-05T16:40:09.875Z,2.85
2023-03-05T16:43:11.259Z,2.77
2023-03-05T16:46:13.687Z,2.66
2023-03-05T16:49:15.853Z,2.45
2023-03-05T16:52:19.078Z,2.43
2023-03-05T16:55:21.103Z,2.43
2023-03-05T16:58:22.545Z,2.46
2023-03-05T17:01:24.565Z,2.52
2023-03-05T17:04:26.102Z,2.43
2023-03-05T17:07:27.605Z,2.45
2023-03-05T17:10:28.992Z,2.32
2023-03-05T17:13:30.345Z,2.33
2023-03-05T17:16:32.473Z,2.30
2023-03-05T17:19:33.935Z,2.30
2023-03-05T17:22:35.308Z,2.25
2023-03-05T17:25:37.429Z,2.17
2023-03-05T17:28:39.361Z,2.16
2023-03-05T17:31:40.796Z,2.17
2023-03-05T17:34:42.513Z,2.13
2023-03-05T17:37:43.962Z,2.14
2023-03-05T17:40:45.378Z,2.13
2023-03-05T17:43:46.855Z,2.11
2023-03-05T17:46:48.217Z,2.13
2023-03-05T17:49:49.600Z,2.13
2023-03-05T17:52:50.985Z,2.11
2023-03-05T17:55:52.898Z,2.11
2023-03-05T17:58:54.382Z,2.15
2023-03-05T18:01:55.773Z,2.11
2023-03-05T18:04:57.211Z,2.12
2023-03-05T18:07:58.590Z,2.13
2023-03-05T18:11:00.009Z,2.05
2023-03-05T18:14:01.880Z,1.99
2023-03-05T18:17:03.268Z,2.01
2023-03-05T18:20:06.394Z,2.00
2023-03-05T18:23:08.045Z,2.01
2023-03-05T18:26:09.415Z,2.02
2023-03-05T18:29:10.818Z,2.03
2023-03-05T18:32:12.223Z,2.01
2023-03-05T18:35:13.644Z,2.02
2023-03-05T18:38:15.109Z,2.01
2023-03-05T18:41:25.239Z,2.01
2023-03-05T18:44:28.588Z,1.99
2023-03-05T18:47:30.005Z,1.98
2023-03-05T18:50:31.404Z,1.88
2023-03-05T18:53:32.846Z,1.87
2023-03-05T18:56:34.478Z,1.79
2023-03-05T18:59:35.879Z,1.73
2023-03-05T19:02:37.307Z,1.73
2023-03-05T19:05:39.894Z,1.79
2023-03-05T19:08:41.748Z,1.73
2023-03-05T19:11:43.156Z,1.72
2023-03-05T19:14:44.642Z,1.68
2023-03-05T19:17:46.032Z,1.64
2023-03-05T19:20:55.096Z,1.60
2023-03-05T19:23:56.587Z,1.43
2023-03-05T19:26:58.048Z,1.41
2023-03-05T19:29:59.443Z,1.36
2023-03-05T19:33:00.799Z,1.30
2023-03-05T19:36:02.241Z,1.24
2023-03-05T19:39:05.764Z,1.23
2023-03-05T19:42:07.978Z,1.21
2023-03-05T19:45:09.846Z,1.12
2023-03-05T19:48:11.251Z,0.95
2023-03-05T19:51:15.905Z,0.94
2023-03-05T19:54:19.872Z,0.99
2023-03-05T19:57:21.257Z,0.80
2023-03-05T20:00:24.631Z,0.62
2023-03-05T20:03:25.932Z,0.28
2023-03-05T20:06:29.126Z,0.34
2023-03-05T20:09:30.603Z,0.27
2023-03-05T20:12:32.066Z,0.25
2023-03-05T20:15:33.509Z,0.29
2023-03-05T20:18:34.904Z,0.29
2023-03-05T20:21:40.113Z,0.17
2023-03-05T20:24:41.500Z,0.27
2023-03-05T20:27:43.702Z,0.37
2023-03-05T20:30:45.129Z,0.26
2023-03-05T20:33:46.565Z,0.31
2023-03-05T20:36:48.201Z,0.42
2023-03-05T20:39:49.609Z,0.44
2023-03-05T20:42:51.044Z,0.36
2023-03-05T20:45:54.708Z,0.27
2023-03-05T20:48:58.965Z,0.26
2023-03-05T20:52:00.347Z,0.28
2023-03-05T20:55:01.812Z,0.29
2023-03-05T20:58:04.456Z,0.17
2023-03-05T21:01:06.269Z,0.10
2023-03-05T21:04:08.327Z,0.17
2023-03-05T21:07:09.743Z,0.15
2023-03-05T21:10:11.605Z,0.07
2023-03-05T21:13:13.035Z,0.17
2023-03-05T21:16:25.598Z,0.14
2023-03-05T21:19:27.062Z,0.09
2023-03-05T21:22:28.502Z,0.06
2023-03-05T21:25:31.367Z,0.05
2023-03-05T21:28:32.785Z,0.02
2023-03-05T21:31:34.253Z,0.06
2023-03-05T21:34:35.695Z,0.07
2023-03-05T21:37:37.117Z,0.11
2023-03-05T21:40:41.764Z,0.09
2023-03-05T21:43:43.386Z,0.17
2023-03-05T21:46:44.836Z,0.25
2023-03-05T21:49:46.311Z,0.17
2023-03-05T21:52:47.783Z,0.19
2023-03-05T21:56:23.684Z,0.23
2023-03-05T21:59:25.076Z,0.24
2023-03-05T22:02:26.500Z,0.31
2023-03-05T22:05:27.906Z,0.31
2023-03-05T22:08:29.458Z,0.26
2023-03-05T22:11:30.907Z,0.30
2023-03-05T22:14:32.712Z,0.39
2023-03-05T22:17:34.154Z,0.40
2023-03-05T22:20:35.608Z,0.43
2023-03-05T22:23:37.010Z,0.34
2023-03-05T22:26:40.656Z,0.26
2023-03-05T22:29:42.042Z,0.25
2023-03-05T22:32:43.446Z,0.21
2023-03-05T22:35:45.038Z,0.16
2023-03-05T22:38:46.843Z,0.18
2023-03-05T22:41:48.242Z,0.17
2023-03-05T22:44:49.890Z,0.15
2023-03-05T22:47:51.422Z,0.14
2023-03-05T22:50:55.880Z,0.15
2023-03-05T22:53:57.274Z,0.15
2023-03-05T22:56:58.651Z,0.10
2023-03-05T23:00:00.102Z,0.10
2023-03-05T23:03:01.688Z,0.09
2023-03-05T23:06:04.814Z,0.07
2023-03-05T23:09:06.211Z,0.01
2023-03-05T23:12:07.877Z,0.04
2023-03-05T23:15:12.574Z,0.05
2023-03-05T23:18:13.956Z,0.03
2023-03-05T23:21:15.328Z,0.02
2023-03-05T23:24:16.702Z,-0.02
2023-03-05T23:27:18.703Z,0.02
2023-03-05T23:30:22.210Z,-0.03
2023-03-05T23:33:24.430Z,-0.08
2023-03-05T23:36:26.066Z,-0.10
2023-03-05T23:39:27.488Z,-0.10
2023-03-05T23:42:28.899Z,-0.10
2023-03-05T23:45:30.855Z,-0.05
2023-03-05T23:48:32.212Z,-0.06
2023-03-05T23:51:33.805Z,-0.10
2023-03-05T23:54:35.229Z,-0.09
2023-03-05T23:57:36.615Z,-0.05
